Time;durP1;ratioP1;P1;durP2;ratioP2;P2;SDS_P1;SDS_P2;PMS_P1;PMS_P2;Temp;Humidity;BMP_temperature;BMP_pressure;BME280_temperature;BME280_humidity;BME280_pressure;Samples;Min_cycle;Max_cycle;Signal;HPM_P1;HPM_P2
2022/07/30 00:01:13;;;;;;;3.40;3.13;;;16.30;99.90;;;;;;5031785;28;20476;-69
2022/07/30 00:03:39;;;;;;;3.30;3.00;;;16.40;99.90;;;;;;5032438;28;20837;-69
2022/07/30 00:06:06;;;;;;;3.03;2.80;;;16.40;99.90;;;;;;5031217;28;20481;-67
2022/07/30 00:08:33;;;;;;;4.37;2.93;;;16.50;99.90;;;;;;5032379;28;20556;-69
2022/07/30 00:10:59;;;;;;;3.07;2.77;;;16.50;99.90;;;;;;5031965;28;20464;-69
2022/07/30 00:13:28;;;;;;;3.30;2.93;;;16.50;99.90;;;;;;5031923;28;20469;-69
2022/07/30 00:15:55;;;;;;;3.30;3.00;;;16.50;99.90;;;;;;5032380;28;20588;-68
2022/07/30 00:18:22;;;;;;;3.23;2.97;;;16.50;99.90;;;;;;5032517;28;20864;-70
2022/07/30 00:20:49;;;;;;;3.60;3.30;;;16.60;99.90;;;;;;5032331;28;20461;-69
2022/07/30 00:23:16;;;;;;;6.87;2.67;;;16.60;99.90;;;;;;5032124;28;20475;-69
2022/07/30 00:25:43;;;;;;;3.20;2.97;;;16.60;99.90;;;;;;5032429;28;20485;-70
2022/07/30 00:28:09;;;;;;;3.67;3.27;;;16.60;99.90;;;;;;5032361;28;20583;-67
2022/07/30 00:30:39;;;;;;;3.03;2.83;;;16.60;99.90;;;;;;5031156;28;20469;-69
2022/07/30 00:33:06;;;;;;;4.03;3.50;;;16.70;99.90;;;;;;5032351;28;20499;-68
2022/07/30 00:35:33;;;;;;;3.30;3.00;;;16.70;99.90;;;;;;5031367;28;20493;-69
2022/07/30 00:38:00;;;;;;;3.50;3.20;;;16.70;99.90;;;;;;5032267;28;20472;-70
2022/07/30 00:40:26;;;;;;;3.30;3.00;;;16.80;99.90;;;;;;5030956;28;20961;-67
2022/07/30 00:42:53;;;;;;;3.40;3.10;;;16.80;99.90;;;;;;5031870;28;20967;-69
2022/07/30 00:45:20;;;;;;;3.57;3.00;;;16.80;99.90;;;;;;5031937;28;20461;-70
2022/07/30 00:47:48;;;;;;;3.30;3.00;;;16.90;99.90;;;;;;5031347;28;20465;-68
2022/07/30 00:50:15;;;;;;;3.40;3.10;;;16.90;99.90;;;;;;5031135;28;20487;-68
2022/07/30 00:52:43;;;;;;;3.30;3.00;;;16.90;99.90;;;;;;5031082;28;20472;-69
2022/07/30 00:55:12;;;;;;;4.43;3.10;;;17.00;99.90;;;;;;5031604;28;20497;-69
2022/07/30 00:57:39;;;;;;;3.13;2.93;;;17.00;99.90;;;;;;5031471;28;21201;-69
2022/07/30 01:00:08;;;;;;;3.50;3.20;;;17.10;99.90;;;;;;5030808;28;20843;-69
2022/07/30 01:02:35;;;;;;;3.77;3.47;;;17.10;99.90;;;;;;5031307;28;20971;-69
2022/07/30 01:05:04;;;;;;;3.50;3.20;;;17.10;99.90;;;;;;5031160;28;20461;-67
2022/07/30 01:07:31;;;;;;;4.27;3.37;;;17.20;99.90;;;;;;5031091;28;20833;-69
2022/07/30 01:09:57;;;;;;;3.27;2.97;;;17.20;99.90;;;;;;5030427;28;20465;-69
2022/07/30 01:12:26;;;;;;;3.53;3.23;;;17.20;99.90;;;;;;5031247;28;20464;-69
2022/07/30 01:14:55;;;;;;;3.03;2.70;;;17.20;99.90;;;;;;5030994;28;20512;-69
2022/07/30 01:17:22;;;;;;;3.00;2.80;;;17.20;99.90;;;;;;5030548;28;20481;-68
2022/07/30 01:19:48;;;;;;;4.33;2.90;;;17.20;99.90;;;;;;5030247;28;20469;-69
2022/07/30 01:22:24;;;;;;;3.30;3.07;;;17.20;99.90;;;;;;5030713;28;20468;-67
2022/07/30 01:24:58;;;;;;;3.67;3.37;;;17.20;99.90;;;;;;5030897;28;20456;-69
2022/07/30 01:27:29;;;;;;;3.97;3.57;;;17.20;99.90;;;;;;5030871;28;20528;-69
2022/07/30 01:29:58;;;;;;;3.90;2.90;;;17.20;99.90;;;;;;5030551;28;20468;-69
2022/07/30 01:32:26;;;;;;;3.83;3.40;;;17.20;99.90;;;;;;5030831;28;20559;-69
2022/07/30 01:34:55;;;;;;;3.40;3.10;;;17.20;99.90;;;;;;5030680;28;21019;-69
2022/07/30 01:37:23;;;;;;;3.10;2.90;;;17.20;99.90;;;;;;5030973;28;20493;-69
2022/07/30 01:39:51;;;;;;;4.33;3.50;;;17.20;99.90;;;;;;5029879;28;20464;-69
2022/07/30 01:42:19;;;;;;;3.50;3.20;;;17.10;99.90;;;;;;5030928;28;20465;-69
2022/07/30 01:44:48;;;;;;;3.60;3.30;;;17.10;99.90;;;;;;5030244;28;20552;-69
2022/07/30 01:47:17;;;;;;;3.63;3.10;;;17.10;99.90;;;;;;5030910;28;20489;-69
2022/07/30 01:49:46;;;;;;;3.80;3.40;;;17.00;99.90;;;;;;5029695;28;20469;-69
2022/07/30 01:52:14;;;;;;;3.40;2.97;;;17.00;99.90;;;;;;5030463;28;20933;-69
2022/07/30 01:54:43;;;;;;;3.50;3.20;;;16.90;99.90;;;;;;5030464;28;20472;-69
2022/07/30 01:57:10;;;;;;;7.33;3.13;;;16.90;99.90;;;;;;5030338;28;20984;-69
2022/07/30 01:59:40;;;;;;;3.27;3.03;;;16.80;99.90;;;;;;5030508;28;20467;-69
2022/07/30 02:02:08;;;;;;;3.20;2.90;;;16.80;99.90;;;;;;5031013;28;21110;-69
2022/07/30 02:04:34;;;;;;;3.30;3.10;;;16.80;99.90;;;;;;5030663;28;20461;-69
2022/07/30 02:07:06;;;;;;;3.07;2.83;;;16.70;99.90;;;;;;5030676;28;20484;-70
2022/07/30 02:09:37;;;;;;;3.23;3.00;;;16.70;99.90;;;;;;5030015;28;20461;-68
2022/07/30 02:14:54;;;;;;;3.83;3.50;;;16.70;99.90;;;;;;5030844;28;20583;-69
2022/07/30 02:17:27;;;;;;;3.70;3.40;;;16.60;99.90;;;;;;5030828;28;20491;-69
2022/07/30 02:19:56;;;;;;;3.77;3.47;;;16.50;99.90;;;;;;5029764;28;20464;-68
2022/07/30 02:22:25;;;;;;;5.73;3.10;;;16.50;99.90;;;;;;5030256;28;20496;-69
2022/07/30 02:24:53;;;;;;;4.20;3.23;;;16.40;99.90;;;;;;5029903;28;20496;-68
2022/07/30 02:27:25;;;;;;;3.47;3.10;;;16.40;99.90;;;;;;5030170;28;20481;-68
2022/07/30 02:29:54;;;;;;;3.60;3.30;;;16.40;99.90;;;;;;5032921;28;20461;-69
2022/07/30 02:32:24;;;;;;;3.40;3.10;;;16.30;99.90;;;;;;5033724;28;20507;-69
2022/07/30 02:34:57;;;;;;;3.53;3.23;;;16.20;99.90;;;;;;5033862;28;20465;-69
2022/07/30 02:37:25;;;;;;;4.07;3.70;;;16.20;99.90;;;;;;5033697;28;20487;-69
2022/07/30 02:39:55;;;;;;;7.00;3.50;;;16.20;99.90;;;;;;5033340;28;20964;-67
2022/07/30 02:42:24;;;;;;;4.17;3.23;;;16.20;99.90;;;;;;5033953;28;20456;-69
2022/07/30 02:44:53;;;;;;;3.73;3.40;;;16.20;99.90;;;;;;5033891;28;20519;-68
2022/07/30 02:47:23;;;;;;;3.03;2.83;;;16.20;99.90;;;;;;5034010;28;20480;-69
2022/07/30 02:49:52;;;;;;;3.50;3.20;;;16.20;99.90;;;;;;5032794;28;20468;-69
2022/07/30 02:52:21;;;;;;;3.67;3.27;;;16.20;99.90;;;;;;5033930;28;20515;-67
2022/07/30 02:54:50;;;;;;;2.87;2.67;;;16.20;99.90;;;;;;5033381;28;20468;-69
2022/07/30 02:57:19;;;;;;;3.30;3.00;;;16.20;99.90;;;;;;5033854;28;20472;-69
2022/07/30 02:59:48;;;;;;;3.20;2.90;;;16.20;99.90;;;;;;5032547;28;21019;-68
2022/07/30 03:02:15;;;;;;;3.60;3.30;;;16.10;99.90;;;;;;5033801;28;20868;-68
2022/07/30 03:04:43;;;;;;;3.13;2.90;;;16.10;99.90;;;;;;5033511;28;20490;-68
2022/07/30 03:07:11;;;;;;;3.97;3.50;;;16.10;99.90;;;;;;5033519;28;20477;-68
2022/07/30 03:09:41;;;;;;;2.93;2.73;;;16.00;99.90;;;;;;5032952;28;20456;-68
2022/07/30 03:12:10;;;;;;;4.03;3.63;;;16.00;99.90;;;;;;5033295;28;20468;-68
2022/07/30 03:14:37;;;;;;;3.47;3.17;;;16.00;99.90;;;;;;5033340;28;20457;-68
2022/07/30 03:17:07;;;;;;;3.40;3.20;;;15.90;99.90;;;;;;5032936;28;20497;-69
2022/07/30 03:19:37;;;;;;;3.47;3.17;;;15.90;99.90;;;;;;5032201;28;20948;-68
2022/07/30 03:22:07;;;;;;;3.73;3.30;;;15.90;99.90;;;;;;5032935;28;20471;-68
2022/07/30 03:24:34;;;;;;;3.80;3.40;;;15.90;99.90;;;;;;5129644;22;20487;-70
2022/07/30 03:27:02;;;;;;;3.83;3.53;;;15.90;99.90;;;;;;5073016;28;20466;-70
2022/07/30 03:29:30;;;;;;;3.60;3.10;;;16.00;99.90;;;;;;5072118;28;20509;-70
2022/07/30 03:31:58;;;;;;;3.87;3.57;;;16.00;99.90;;;;;;5073085;28;20451;-70
2022/07/30 03:34:25;;;;;;;4.83;3.77;;;16.00;99.90;;;;;;5072634;28;20481;-70
2022/07/30 03:36:53;;;;;;;3.57;3.27;;;16.00;99.90;;;;;;5073021;28;20495;-70
2022/07/30 03:39:22;;;;;;;3.50;3.20;;;16.00;99.90;;;;;;5071190;28;20550;-70
2022/07/30 03:41:50;;;;;;;4.00;3.53;;;15.90;99.90;;;;;;5072307;28;20455;-70
2022/07/30 03:44:17;;;;;;;5.70;4.10;;;15.90;99.90;;;;;;5072976;28;20466;-70
2022/07/30 03:46:45;;;;;;;3.83;3.50;;;15.90;99.90;;;;;;5072626;28;20483;-70
2022/07/30 03:49:12;;;;;;;3.27;2.97;;;15.80;99.90;;;;;;5072109;28;20469;-70
2022/07/30 03:51:39;;;;;;;3.83;3.53;;;15.70;99.90;;;;;;5072260;28;20491;-70
2022/07/30 03:54:08;;;;;;;4.30;3.90;;;15.70;99.90;;;;;;5071646;28;20482;-70
2022/07/30 03:56:36;;;;;;;3.80;3.50;;;15.70;99.90;;;;;;5068668;28;20578;-70
2022/07/30 03:59:03;;;;;;;3.67;3.30;;;15.60;99.90;;;;;;5070955;28;20455;-68
2022/07/30 04:01:30;;;;;;;3.43;3.13;;;15.60;99.90;;;;;;5069913;28;20481;-68
2022/07/30 04:04:05;;;;;;;4.27;3.40;;;15.60;99.90;;;;;;5072057;28;20470;-69
2022/07/30 04:06:35;;;;;;;3.30;3.00;;;15.60;99.90;;;;;;5072117;28;20997;-68
2022/07/30 04:09:01;;;;;;;3.20;2.90;;;15.60;99.90;;;;;;5072310;28;21085;-68
2022/07/30 04:11:28;;;;;;;4.40;3.90;;;15.50;99.90;;;;;;5071593;28;20467;-68
2022/07/30 04:13:56;;;;;;;4.33;3.93;;;15.50;99.90;;;;;;5071890;28;21005;-68
2022/07/30 04:16:29;;;;;;;3.70;3.40;;;15.50;99.90;;;;;;5071569;28;20479;-69
2022/07/30 04:18:59;;;;;;;4.13;3.40;;;15.50;99.90;;;;;;5071749;28;20834;-68
2022/07/30 04:21:26;;;;;;;4.93;4.30;;;15.50;99.90;;;;;;5071345;28;20936;-68
2022/07/30 04:23:54;;;;;;;3.90;3.50;;;15.40;99.90;;;;;;5071997;28;20819;-68
2022/07/30 04:26:22;;;;;;;4.07;3.67;;;15.50;99.90;;;;;;5071656;28;20565;-68
2022/07/30 04:28:49;;;;;;;3.30;2.87;;;15.40;99.90;;;;;;5072075;28;20467;-68
2022/07/30 04:31:17;;;;;;;4.00;3.60;;;15.40;99.90;;;;;;5071626;28;20546;-67
2022/07/30 04:33:45;;;;;;;4.67;3.80;;;15.40;99.90;;;;;;5072591;28;20456;-68
2022/07/30 04:36:12;;;;;;;3.87;3.53;;;15.40;99.90;;;;;;5071864;28;20487;-68
2022/07/30 04:38:39;;;;;;;3.47;3.17;;;15.40;99.90;;;;;;5072254;28;20949;-68
2022/07/30 04:41:06;;;;;;;3.87;3.57;;;15.40;99.90;;;;;;5071670;28;20881;-68
2022/07/30 04:43:33;;;;;;;3.90;3.60;;;15.50;99.90;;;;;;5071604;28;20466;-68
2022/07/30 04:45:59;;;;;;;4.10;3.70;;;15.50;99.90;;;;;;5072046;28;20479;-68
2022/07/30 04:48:28;;;;;;;3.70;3.40;;;15.50;99.90;;;;;;5071643;28;20707;-68
2022/07/30 04:50:57;;;;;;;4.47;3.70;;;15.50;99.90;;;;;;5070860;28;20455;-68
2022/07/30 04:53:25;;;;;;;3.30;3.00;;;15.50;99.90;;;;;;5071469;28;20556;-68
2022/07/30 04:55:53;;;;;;;3.87;3.47;;;15.60;99.90;;;;;;5071655;28;20497;-68
2022/07/30 04:58:22;;;;;;;4.00;3.70;;;15.60;99.90;;;;;;5071323;28;20959;-68
2022/07/30 05:00:51;;;;;;;3.47;3.17;;;15.60;99.90;;;;;;5070992;28;20894;-68
2022/07/30 05:03:18;;;;;;;3.63;3.33;;;15.70;99.90;;;;;;5071029;28;20459;-68
2022/07/30 05:05:47;;;;;;;5.87;3.87;;;15.70;99.90;;;;;;5070964;28;20483;-68
2022/07/30 05:08:14;;;;;;;3.17;2.87;;;15.80;99.90;;;;;;5070825;28;20871;-68
2022/07/30 05:10:43;;;;;;;5.80;3.40;;;15.90;99.90;;;;;;5070548;28;20459;-68
2022/07/30 05:13:12;;;;;;;3.93;3.53;;;15.90;99.90;;;;;;5071170;28;21125;-68
2022/07/30 05:15:39;;;;;;;4.03;3.60;;;15.90;99.90;;;;;;5070768;28;20532;-68
2022/07/30 05:18:06;;;;;;;4.50;3.77;;;16.00;99.90;;;;;;5070718;28;20464;-68
2022/07/30 05:20:33;;;;;;;7.57;3.43;;;16.00;99.90;;;;;;5070373;28;20491;-68
2022/07/30 05:23:01;;;;;;;4.23;3.50;;;16.10;99.90;;;;;;5070627;28;20999;-68
2022/07/30 05:25:28;;;;;;;4.00;3.70;;;16.20;99.90;;;;;;5070719;28;20490;-69
2022/07/30 05:27:55;;;;;;;4.23;3.83;;;16.30;99.90;;;;;;5070623;28;20953;-68
2022/07/30 05:30:22;;;;;;;4.47;3.43;;;16.40;99.90;;;;;;5069968;28;20463;-68
2022/07/30 05:32:49;;;;;;;4.20;3.80;;;16.40;99.90;;;;;;5070480;28;20455;-69
2022/07/30 05:35:16;;;;;;;4.47;3.93;;;16.50;99.90;;;;;;5070141;28;20459;-68
2022/07/30 05:37:42;;;;;;;3.60;3.30;;;16.50;99.90;;;;;;5070384;28;21017;-68
2022/07/30 05:40:12;;;;;;;3.93;3.63;;;16.60;99.90;;;;;;5069801;28;20459;-68
2022/07/30 05:42:39;;;;;;;4.67;3.57;;;16.70;99.90;;;;;;5070836;28;20455;-68
2022/07/30 05:45:06;;;;;;;3.50;3.20;;;16.70;99.90;;;;;;5070240;28;20466;-68
2022/07/30 05:47:33;;;;;;;3.57;3.27;;;16.80;99.90;;;;;;5070558;28;20459;-68
2022/07/30 05:50:00;;;;;;;5.10;4.70;;;16.90;99.90;;;;;;5070182;28;20981;-68
2022/07/30 05:52:27;;;;;;;4.07;3.37;;;17.00;99.90;;;;;;5070282;28;20498;-69
2022/07/30 05:54:54;;;;;;;3.93;3.53;;;17.00;99.90;;;;;;5070539;28;20529;-69
2022/07/30 05:57:22;;;;;;;4.43;3.93;;;17.10;99.90;;;;;;5069811;28;20498;-68
2022/07/30 05:59:49;;;;;;;3.70;3.40;;;17.20;99.90;;;;;;5068204;28;20529;-68
2022/07/30 06:02:15;;;;;;;3.43;3.13;;;17.30;99.90;;;;;;5049436;28;20510;-69
2022/07/30 06:04:42;;;;;;;3.40;3.20;;;17.30;99.90;;;;;;5053239;28;20460;-68
2022/07/30 06:07:09;;;;;;;3.77;3.30;;;17.40;99.90;;;;;;5053667;28;20486;-69
2022/07/30 06:09:36;;;;;;;3.67;3.37;;;17.50;99.90;;;;;;5053301;28;20463;-69
2022/07/30 06:12:03;;;;;;;4.13;3.80;;;17.60;99.90;;;;;;5053873;28;20474;-69
2022/07/30 06:14:31;;;;;;;4.23;3.83;;;17.60;99.90;;;;;;5053966;28;20467;-68
2022/07/30 06:16:58;;;;;;;3.60;3.30;;;17.70;99.90;;;;;;5053940;28;20549;-68
2022/07/30 06:19:25;;;;;;;7.40;4.07;;;17.70;99.90;;;;;;5052937;28;20934;-69
2022/07/30 06:21:51;;;;;;;4.20;3.80;;;17.80;99.90;;;;;;5054083;28;20514;-68
2022/07/30 06:24:18;;;;;;;4.00;3.70;;;17.90;99.90;;;;;;5053456;28;20472;-69
2022/07/30 06:26:45;;;;;;;4.47;3.87;;;17.90;99.90;;;;;;5053958;28;20471;-68
2022/07/30 06:29:12;;;;;;;3.83;3.53;;;18.00;99.90;;;;;;5053556;28;20467;-68
2022/07/30 06:31:40;;;;;;;6.47;3.27;;;18.10;99.90;;;;;;5053674;28;20464;-69
2022/07/30 06:34:07;;;;;;;5.00;3.87;;;18.10;99.90;;;;;;5054010;28;20496;-69
2022/07/30 06:36:33;;;;;;;5.50;3.93;;;18.20;99.90;;;;;;5053518;28;20552;-69
2022/07/30 06:39:00;;;;;;;4.73;4.20;;;18.20;99.90;;;;;;5053770;28;20467;-69
2022/07/30 06:41:27;;;;;;;4.07;3.30;;;18.30;99.90;;;;;;5053199;28;20471;-69
2022/07/30 06:43:53;;;;;;;5.07;4.07;;;18.40;99.90;;;;;;5053548;28;20464;-69
2022/07/30 06:46:20;;;;;;;4.50;3.80;;;18.40;99.90;;;;;;5053551;28;20483;-68
2022/07/30 06:48:48;;;;;;;7.17;3.80;;;18.50;99.90;;;;;;5053362;28;20468;-68
2022/07/30 06:51:15;;;;;;;4.43;4.03;;;18.60;99.90;;;;;;5053063;28;20558;-68
2022/07/30 06:53:44;;;;;;;6.57;4.80;;;18.70;99.90;;;;;;5053246;28;20966;-70
2022/07/30 06:56:11;;;;;;;4.83;3.97;;;18.80;99.90;;;;;;5053180;28;20479;-70
2022/07/30 06:58:38;;;;;;;4.73;4.00;;;18.80;99.90;;;;;;5053319;28;20470;-70
2022/07/30 07:01:04;;;;;;;4.10;3.70;;;18.90;99.90;;;;;;5052819;28;20460;-70
2022/07/30 07:03:31;;;;;;;3.63;3.33;;;19.00;99.90;;;;;;5053140;28;20471;-70
2022/07/30 07:05:59;;;;;;;4.00;3.60;;;19.10;99.90;;;;;;5053102;28;20487;-70
2022/07/30 07:08:26;;;;;;;4.47;4.07;;;19.20;99.90;;;;;;5053177;28;20928;-70
2022/07/30 07:10:53;;;;;;;3.80;3.50;;;19.30;99.90;;;;;;5052756;28;20460;-70
2022/07/30 07:13:19;;;;;;;5.97;4.20;;;19.30;99.90;;;;;;5052714;28;20457;-71
2022/07/30 07:15:46;;;;;;;4.77;4.13;;;19.40;99.90;;;;;;5052871;28;20484;-70
2022/07/30 07:18:14;;;;;;;7.40;4.53;;;19.50;99.90;;;;;;5052524;28;20486;-70
2022/07/30 07:20:42;;;;;;;5.93;4.30;;;19.50;99.90;;;;;;5052654;28;20486;-70
2022/07/30 07:23:10;;;;;;;4.40;3.87;;;19.60;99.90;;;;;;5052749;28;20474;-70
2022/07/30 07:25:37;;;;;;;4.43;3.37;;;19.70;99.90;;;;;;5052514;28;20480;-70
2022/07/30 07:28:04;;;;;;;3.67;3.37;;;19.70;99.90;;;;;;5052856;28;20828;-70
2022/07/30 07:30:30;;;;;;;4.63;3.97;;;19.80;99.90;;;;;;5058312;28;20461;-70
2022/07/30 07:32:57;;;;;;;4.23;3.60;;;19.90;99.90;;;;;;5072306;28;20462;-70
2022/07/30 07:35:24;;;;;;;4.73;4.20;;;20.00;99.90;;;;;;5071852;28;20471;-70
2022/07/30 07:37:51;;;;;;;3.57;3.27;;;20.10;99.90;;;;;;5072236;28;20482;-70
2022/07/30 07:40:19;;;;;;;3.97;3.67;;;20.10;99.90;;;;;;5068655;28;20463;-70
2022/07/30 07:42:46;;;;;;;5.73;3.60;;;20.20;99.90;;;;;;5072184;28;20482;-70
2022/07/30 07:45:12;;;;;;;3.27;3.00;;;20.30;99.90;;;;;;5072304;28;20467;-70
2022/07/30 07:47:44;;;;;;;3.27;3.00;;;20.40;99.90;;;;;;5072399;28;20466;-70
2022/07/30 07:50:11;;;;;;;3.23;3.00;;;20.40;99.90;;;;;;5071996;28;20466;-70
2022/07/30 07:52:37;;;;;;;2.73;2.53;;;20.50;99.90;;;;;;5069586;28;20554;-70
2022/07/30 07:55:06;;;;;;;3.07;2.77;;;20.60;99.90;;;;;;5070826;28;20459;-70
2022/07/30 07:57:40;;;;;;;3.23;3.03;;;20.70;99.90;;;;;;5072184;28;20491;-70
2022/07/30 08:00:08;;;;;;;2.97;2.70;;;20.80;99.90;;;;;;5071465;28;20470;-69
2022/07/30 08:02:35;;;;;;;2.63;2.43;;;20.80;99.90;;;;;;5071416;28;20488;-69
2022/07/30 08:05:03;;;;;;;2.90;2.70;;;20.90;99.90;;;;;;5071477;28;20465;-69
2022/07/30 08:07:30;;;;;;;3.07;2.87;;;21.00;99.90;;;;;;5071222;28;20456;-69
2022/07/30 08:09:57;;;;;;;3.20;3.00;;;21.10;99.90;;;;;;5071288;28;20520;-69
2022/07/30 08:12:24;;;;;;;3.03;2.73;;;21.20;99.90;;;;;;5071635;28;20474;-69
2022/07/30 08:14:52;;;;;;;3.80;2.80;;;21.20;99.90;;;;;;5071375;28;20469;-69
2022/07/30 08:17:19;;;;;;;3.40;3.10;;;21.30;99.90;;;;;;5070917;28;20857;-69
2022/07/30 08:19:46;;;;;;;2.97;2.77;;;21.40;99.90;;;;;;5071574;28;20831;-69
2022/07/30 08:22:13;;;;;;;6.50;3.10;;;21.50;99.90;;;;;;5070986;28;20459;-69
2022/07/30 08:24:40;;;;;;;3.27;3.03;;;21.50;99.90;;;;;;5071731;28;20469;-69
2022/07/30 08:27:07;;;;;;;7.30;2.97;;;21.60;99.90;;;;;;5070726;28;20475;-69
2022/07/30 08:29:34;;;;;;;3.67;2.97;;;21.70;99.90;;;;;;5069980;28;20462;-70
2022/07/30 08:32:02;;;;;;;4.73;3.00;;;21.80;99.90;;;;;;5070998;28;20448;-70
2022/07/30 08:34:29;;;;;;;4.43;2.70;;;21.90;99.90;;;;;;5070899;28;20523;-70
2022/07/30 08:36:56;;;;;;;3.13;2.83;;;22.10;99.90;;;;;;5071243;28;20480;-69
2022/07/30 08:39:22;;;;;;;3.57;3.27;;;22.20;99.90;;;;;;5070360;28;20855;-69
2022/07/30 08:41:50;;;;;;;2.73;2.50;;;22.10;99.90;;;;;;5070482;28;20456;-70
2022/07/30 08:44:18;;;;;;;2.73;2.53;;;22.10;99.90;;;;;;5071116;28;20460;-69
2022/07/30 08:46:46;;;;;;;3.50;3.20;;;22.10;99.90;;;;;;5070639;28;20475;-70
2022/07/30 08:49:15;;;;;;;3.13;2.87;;;22.10;99.90;;;;;;5070330;28;20461;-70
2022/07/30 08:51:42;;;;;;;3.93;2.97;;;22.20;99.90;;;;;;5071082;28;20582;-69
2022/07/30 08:54:10;;;;;;;2.80;2.60;;;22.30;99.90;;;;;;5068978;28;20459;-69
2022/07/30 08:56:37;;;;;;;2.63;2.43;;;22.30;99.90;;;;;;5071380;28;20479;-69
2022/07/30 08:59:04;;;;;;;3.03;2.73;;;22.40;99.90;;;;;;5070791;28;20995;-69
2022/07/30 09:01:31;;;;;;;2.63;2.43;;;22.30;99.90;;;;;;5069916;28;20471;-68
2022/07/30 09:03:58;;;;;;;2.73;2.53;;;22.20;99.90;;;;;;5071429;28;20960;-69
2022/07/30 09:06:26;;;;;;;3.00;2.60;;;22.10;99.90;;;;;;5069574;28;21010;-69
2022/07/30 09:08:53;;;;;;;3.40;3.00;;;22.10;99.90;;;;;;5070587;28;20462;-69
2022/07/30 09:11:20;;;;;;;4.20;2.80;;;22.10;99.90;;;;;;5070234;28;20500;-69
2022/07/30 09:13:47;;;;;;;2.50;2.30;;;22.30;99.90;;;;;;5070190;28;20820;-69
2022/07/30 09:16:22;;;;;;;2.60;2.40;;;22.60;99.90;;;;;;5070733;28;20484;-69
2022/07/30 09:18:49;;;;;;;3.23;2.80;;;22.80;99.90;;;;;;5070596;28;20516;-69
2022/07/30 09:21:19;;;;;;;2.40;2.20;;;22.90;99.90;;;;;;5069824;28;20460;-69
2022/07/30 09:23:58;;;;;;;2.50;2.27;;;22.80;99.90;;;;;;5070622;28;20474;-69
2022/07/30 09:26:25;;;;;;;3.87;2.87;;;22.70;99.90;;;;;;5070409;28;20560;-69
2022/07/30 09:28:52;;;;;;;5.50;2.93;;;22.60;99.90;;;;;;5070562;28;20467;-69
2022/07/30 09:31:20;;;;;;;2.57;2.37;;;22.50;99.90;;;;;;5070294;28;20468;-68
2022/07/30 09:33:48;;;;;;;2.70;2.50;;;22.50;99.90;;;;;;5068261;28;20884;-69
2022/07/30 09:36:16;;;;;;;2.97;2.40;;;22.60;99.90;;;;;;5067275;28;20476;-69
2022/07/30 09:38:48;;;;;;;2.50;2.30;;;22.90;99.90;;;;;;5069461;28;20484;-68
2022/07/30 09:41:18;;;;;;;3.60;2.73;;;23.10;99.90;;;;;;5068329;28;20627;-68
2022/07/30 09:43:47;;;;;;;3.00;2.67;;;23.30;99.90;;;;;;5070436;28;20517;-68
2022/07/30 09:46:14;;;;;;;2.50;2.30;;;23.50;99.90;;;;;;5067663;28;20485;-69
2022/07/30 09:48:41;;;;;;;2.60;2.20;;;23.60;99.90;;;;;;5070408;28;21196;-69
2022/07/30 09:51:09;;;;;;;2.43;2.23;;;23.80;99.90;;;;;;5069021;28;20837;-69
2022/07/30 09:53:36;;;;;;;2.80;2.57;;;24.00;99.90;;;;;;5069449;28;20474;-69
2022/07/30 09:56:25;;;;;;;2.60;2.40;;;24.20;99.90;;;;;;5070320;28;20485;-69
2022/07/30 09:58:52;;;;;;;2.00;1.90;;;24.30;99.90;;;;;;5069232;28;20484;-69
2022/07/30 10:01:18;;;;;;;2.87;2.57;;;24.20;99.90;;;;;;5069315;28;20942;-69
2022/07/30 10:03:45;;;;;;;3.93;2.30;;;24.10;99.90;;;;;;5069425;28;20472;-69
2022/07/30 10:06:12;;;;;;;2.43;2.23;;;24.20;99.90;;;;;;5068596;28;20572;-69
2022/07/30 10:08:41;;;;;;;2.40;2.20;;;24.30;99.90;;;;;;5069796;28;20464;-69
2022/07/30 10:11:11;;;;;;;2.47;2.27;;;24.50;99.20;;;;;;5068947;28;20467;-69
2022/07/30 10:13:40;;;;;;;3.93;2.00;;;24.60;98.50;;;;;;5069345;28;20462;-69
2022/07/30 10:16:08;;;;;;;2.03;1.90;;;24.50;98.20;;;;;;5069814;28;20481;-69
2022/07/30 10:18:35;;;;;;;2.30;2.10;;;24.60;98.90;;;;;;5068563;28;20485;-69
2022/07/30 10:21:03;;;;;;;3.63;1.97;;;24.50;99.00;;;;;;5069053;28;20532;-68
2022/07/30 10:23:31;;;;;;;3.87;2.33;;;24.40;98.20;;;;;;5069076;28;20469;-69
2022/07/30 10:25:59;;;;;;;2.27;1.93;;;24.50;98.80;;;;;;5069704;28;20492;-69
2022/07/30 10:28:27;;;;;;;2.53;2.27;;;24.80;99.90;;;;;;5068177;28;20488;-69
2022/07/30 10:30:57;;;;;;;1.67;1.57;;;25.10;99.60;;;;;;5068472;28;20464;-69
2022/07/30 10:33:26;;;;;;;3.20;2.20;;;25.20;99.30;;;;;;5069569;28;20472;-70
2022/07/30 10:35:53;;;;;;;2.07;1.90;;;25.30;99.50;;;;;;5069193;28;20478;-69
2022/07/30 10:38:23;;;;;;;5.33;2.03;;;25.00;98.60;;;;;;5068849;28;20715;-69
2022/07/30 10:40:57;;;;;;;2.07;1.97;;;24.90;99.00;;;;;;5069351;28;20462;-69
2022/07/30 10:43:49;;;;;;;5.67;2.57;;;25.00;99.90;;;;;;5068060;28;20463;-69
2022/07/30 10:46:29;;;;;;;2.37;2.17;;;25.20;99.00;;;;;;5069282;28;20483;-69
2022/07/30 10:49:07;;;;;;;2.23;2.00;;;25.40;97.90;;;;;;5069323;28;20512;-69
2022/07/30 10:51:43;;;;;;;2.53;2.33;;;25.60;98.60;;;;;;5072467;28;20458;-69
2022/07/30 10:54:38;;;;;;;1.90;1.80;;;25.80;98.30;;;;;;5073042;28;20847;-69
2022/07/30 10:57:08;;;;;;;1.77;1.67;;;25.90;97.90;;;;;;5072494;28;20478;-69
2022/07/30 11:00:13;;;;;;;2.70;2.00;;;26.00;98.30;;;;;;5072114;28;20632;-69
2022/07/30 11:05:27;;;;;;;1.70;1.60;;;26.20;97.40;;;;;;5008645;28;20445;-96
2022/07/30 11:08:38;;;;;;;2.10;1.90;;;26.10;97.30;;;;;;5019034;28;20453;-96
2022/07/30 11:13:53;;;;;;;2.87;1.87;;;26.20;97.00;;;;;;5030957;28;20567;-72
2022/07/30 11:16:22;;;;;;;2.03;1.83;;;26.20;95.60;;;;;;5032645;28;20491;-73
2022/07/30 11:19:06;;;;;;;2.03;1.90;;;26.20;95.30;;;;;;5032872;28;20463;-73
2022/07/30 11:21:34;;;;;;;2.03;1.70;;;26.00;94.50;;;;;;5032380;28;20846;-72
2022/07/30 11:24:03;;;;;;;1.70;1.60;;;26.00;96.80;;;;;;5032916;28;20464;-72
2022/07/30 11:26:52;;;;;;;1.93;1.80;;;26.20;96.90;;;;;;5032573;28;20889;-72
2022/07/30 11:29:40;;;;;;;3.70;2.17;;;26.30;96.40;;;;;;5032025;28;20495;-71
2022/07/30 11:32:27;;;;;;;2.80;2.03;;;26.50;97.30;;;;;;5032179;28;21283;-72
2022/07/30 11:35:13;;;;;;;3.23;2.47;;;26.70;96.10;;;;;;5032803;28;20469;-72
2022/07/30 11:37:57;;;;;;;2.03;1.83;;;26.70;94.60;;;;;;5032433;28;20464;-73
2022/07/30 11:40:26;;;;;;;1.80;1.70;;;27.00;95.40;;;;;;5031990;28;20645;-72
2022/07/30 11:43:23;;;;;;;1.80;1.50;;;27.00;94.60;;;;;;5032645;28;20468;-72
2022/07/30 11:45:52;;;;;;;2.10;1.73;;;26.80;93.70;;;;;;5012241;28;20478;-72
2022/07/30 11:48:20;;;;;;;2.20;2.00;;;26.70;94.80;;;;;;5017510;28;20484;-72
2022/07/30 11:50:48;;;;;;;2.20;1.80;;;26.60;94.50;;;;;;5031234;28;20465;-72
2022/07/30 11:53:18;;;;;;;2.00;1.80;;;26.50;94.40;;;;;;5033375;28;20465;-71
2022/07/30 11:55:51;;;;;;;1.90;1.70;;;26.40;94.50;;;;;;5032017;28;21002;-72
2022/07/30 11:58:27;;;;;;;1.90;1.80;;;26.50;93.70;;;;;;5031642;28;20464;-71
2022/07/30 12:00:56;;;;;;;2.17;1.97;;;26.60;93.90;;;;;;5030049;28;20471;-70
2022/07/30 12:03:25;;;;;;;1.83;1.73;;;26.60;92.70;;;;;;5031706;28;20504;-70
2022/07/30 12:05:52;;;;;;;1.87;1.50;;;26.50;94.60;;;;;;5031789;28;20536;-71
2022/07/30 12:08:19;;;;;;;2.10;1.90;;;26.50;95.00;;;;;;5031618;28;21034;-70
2022/07/30 12:10:58;;;;;;;1.87;1.63;;;26.80;93.80;;;;;;5031971;28;20471;-70
2022/07/30 12:13:25;;;;;;;2.70;1.70;;;27.10;93.20;;;;;;5030735;28;20508;-71
2022/07/30 12:15:52;;;;;;;2.10;1.93;;;27.20;92.10;;;;;;5031805;28;20520;-71
2022/07/30 12:18:26;;;;;;;3.27;2.03;;;27.30;94.90;;;;;;5031244;28;20457;-71
2022/07/30 12:20:54;;;;;;;2.07;1.87;;;27.50;95.00;;;;;;5030709;28;20461;-72
2022/07/30 12:23:21;;;;;;;2.80;1.90;;;27.70;94.00;;;;;;5032203;28;20836;-72
2022/07/30 12:25:48;;;;;;;1.70;1.60;;;27.90;93.50;;;;;;5030713;28;20480;-71
2022/07/30 12:28:21;;;;;;;1.83;1.70;;;27.90;93.60;;;;;;5030906;28;20484;-71
2022/07/30 12:30:48;;;;;;;1.83;1.73;;;27.80;93.10;;;;;;5030980;28;20465;-71
2022/07/30 12:33:15;;;;;;;2.20;2.00;;;27.70;92.90;;;;;;5031264;28;20465;-71
2022/07/30 12:35:43;;;;;;;1.63;1.53;;;27.90;92.30;;;;;;5031098;28;20477;-71
2022/07/30 12:38:10;;;;;;;1.77;1.67;;;27.90;91.90;;;;;;5030327;28;20467;-71
2022/07/30 12:40:51;;;;;;;2.47;1.80;;;28.00;93.30;;;;;;5030962;28;20488;-70
2022/07/30 12:43:18;;;;;;;8.27;7.40;;;28.20;92.60;;;;;;5030352;28;20468;-73
2022/07/30 12:45:46;;;;;;;2.90;2.13;;;28.30;91.70;;;;;;5031195;28;21107;-71
2022/07/30 12:48:13;;;;;;;2.73;2.30;;;28.30;91.30;;;;;;5030440;28;20461;-71
2022/07/30 12:50:39;;;;;;;1.90;1.70;;;28.30;90.70;;;;;;5029652;28;20464;-71
2022/07/30 12:53:06;;;;;;;2.17;1.97;;;28.30;92.00;;;;;;5030758;28;20968;-71
2022/07/30 12:55:35;;;;;;;1.83;1.73;;;28.00;91.10;;;;;;5030602;28;20481;-72
2022/07/30 12:58:03;;;;;;;2.23;1.80;;;27.80;92.80;;;;;;5030534;28;20461;-70
2022/07/30 13:00:31;;;;;;;2.37;2.17;;;27.60;91.70;;;;;;5030272;28;20461;-70
2022/07/30 13:02:59;;;;;;;1.80;1.67;;;27.60;91.30;;;;;;5030200;28;20456;-71
2022/07/30 13:05:43;;;;;;;2.00;1.80;;;27.50;91.40;;;;;;5030321;28;20495;-71